Time;durP1;ratioP1;P1;durP2;ratioP2;P2;SDS_P1;SDS_P2;PMS_P1;PMS_P2;Temp;Humidity;BMP_temperature;BMP_pressure;BME280_temperature;BME280_humidity;BME280_pressure;Samples;Min_cycle;Max_cycle;Signal;HPM_P1;HPM_P2
2020/12/14 00:01:41;;;;;;;9.47;6.40;;;;;;;5.62;100.00;95164.22;5073201;28;20218;-68
2020/12/14 00:04:08;;;;;;;12.27;6.17;;;;;;;5.68;100.00;95168.28;5073060;28;20206;-68
2020/12/14 00:06:34;;;;;;;21.50;8.97;;;;;;;5.78;100.00;95175.19;5073132;28;20566;-69
2020/12/14 00:09:01;;;;;;;10.60;5.43;;;;;;;5.75;100.00;95170.56;5072930;28;20188;-68
2020/12/14 00:11:37;;;;;;;11.47;5.70;;;;;;;5.80;100.00;95168.69;5072765;28;20714;-68
2020/12/14 00:14:04;;;;;;;12.03;5.90;;;;;;;5.83;100.00;95170.72;5073271;28;20206;-68
2020/12/14 00:16:32;;;;;;;10.70;5.43;;;;;;;5.85;100.00;95175.63;5073050;28;20192;-67
2020/12/14 00:18:58;;;;;;;19.50;11.27;;;;;;;5.91;100.00;95180.50;5073171;28;20644;-64
2020/12/14 00:21:25;;;;;;;19.97;12.00;;;;;;;5.94;99.60;95179.19;5072657;28;20231;-66
2020/12/14 00:23:52;;;;;;;24.77;12.43;;;;;;;5.91;99.47;95183.09;5072920;28;20222;-68
2020/12/14 00:26:19;;;;;;;22.30;13.33;;;;;;;5.92;100.00;95187.22;5072509;28;20566;-67
2020/12/14 00:28:48;;;;;;;28.90;16.37;;;;;;;5.93;100.00;95193.88;5072595;28;20245;-69
2020/12/14 00:31:15;;;;;;;31.43;17.70;;;;;;;5.93;99.98;95191.31;5072602;28;20219;-68
2020/12/14 00:33:43;;;;;;;40.07;22.10;;;;;;;5.95;100.00;95196.97;5072602;28;20196;-68
2020/12/14 00:36:10;;;;;;;47.37;28.10;;;;;;;5.96;100.00;95193.34;5072579;28;20203;-68
2020/12/14 00:38:37;;;;;;;48.77;29.40;;;;;;;5.99;100.00;95199.75;5073045;28;20663;-68
2020/12/14 00:41:04;;;;;;;52.83;29.33;;;;;;;6.02;100.00;95197.44;5072296;28;20272;-68
2020/12/14 00:43:32;;;;;;;35.70;21.77;;;;;;;6.06;98.92;95195.06;5072423;28;20226;-66
2020/12/14 00:45:59;;;;;;;39.13;22.07;;;;;;;6.01;98.73;95193.31;5072350;28;20199;-67
2020/12/14 00:48:25;;;;;;;48.70;24.90;;;;;;;6.07;98.37;95201.78;5072550;28;20214;-67
2020/12/14 00:50:53;;;;;;;63.63;27.93;;;;;;;6.10;97.86;95197.88;5072210;28;20198;-69
2020/12/14 00:53:20;;;;;;;44.00;23.23;;;;;;;6.05;98.02;95209.78;5072495;28;20192;-67
2020/12/14 00:55:47;;;;;;;44.53;24.03;;;;;;;6.04;97.92;95210.03;5072175;28;20204;-68
2020/12/14 00:58:13;;;;;;;50.07;24.90;;;;;;;6.04;98.32;95210.81;5072322;28;20192;-69
2020/12/14 01:00:40;;;;;;;42.43;21.77;;;;;;;6.03;98.88;95214.44;5071859;28;20319;-68
2020/12/14 01:03:07;;;;;;;24.27;15.40;;;;;;;6.00;99.97;95227.09;5071949;28;20579;-68
2020/12/14 01:05:34;;;;;;;23.80;14.10;;;;;;;5.98;100.00;95219.63;5072242;28;20290;-66
2020/12/14 01:08:01;;;;;;;22.73;12.50;;;;;;;5.97;100.00;95217.34;5071141;28;20196;-67
2020/12/14 01:10:28;;;;;;;19.73;12.13;;;;;;;5.93;100.00;95216.31;5072177;28;20199;-69
2020/12/14 01:12:55;;;;;;;21.77;12.53;;;;;;;5.94;100.00;95220.44;5071866;28;20199;-68
2020/12/14 01:15:22;;;;;;;15.67;10.37;;;;;;;5.86;100.00;95221.78;5071986;28;20571;-69
2020/12/14 01:17:48;;;;;;;12.70;7.60;;;;;;;5.91;99.95;95226.91;5071774;28;20188;-69
2020/12/14 01:20:15;;;;;;;13.83;9.13;;;;;;;5.91;99.89;95242.38;5071936;28;20231;-69
2020/12/14 01:22:43;;;;;;;14.87;10.37;;;;;;;5.92;100.00;95233.63;5071803;28;20191;-68
2020/12/14 01:25:11;;;;;;;7.17;5.43;;;;;;;5.94;99.10;95235.91;5071854;28;20201;-69
2020/12/14 01:27:38;;;;;;;10.03;5.70;;;;;;;5.98;97.44;95232.53;5071430;28;20207;-68
2020/12/14 01:30:05;;;;;;;11.73;5.77;;;;;;;6.00;96.57;95230.44;5071620;28;20257;-69
2020/12/14 01:32:32;;;;;;;12.83;5.67;;;;;;;5.96;96.76;95234.63;5071388;28;20751;-67
2020/12/14 01:34:59;;;;;;;8.10;5.30;;;;;;;5.97;97.48;95238.75;5071325;28;20194;-69
2020/12/14 01:37:25;;;;;;;10.53;5.93;;;;;;;6.05;96.56;95234.78;5071517;28;20192;-67
2020/12/14 01:39:52;;;;;;;17.27;7.73;;;;;;;6.08;96.68;95246.41;5071117;28;20234;-69
2020/12/14 01:42:22;;;;;;;9.17;5.20;;;;;;;6.08;95.63;95248.97;5071091;28;20250;-67
2020/12/14 01:44:50;;;;;;;12.93;6.33;;;;;;;6.05;94.98;95248.47;5071389;28;20282;-67
2020/12/14 01:47:29;;;;;;;4.93;3.90;;;;;;;6.15;95.25;95247.63;5071293;28;20708;-69
2020/12/14 01:49:56;;;;;;;5.33;3.57;;;;;;;6.15;95.11;95249.41;5071139;28;20267;-65
2020/12/14 01:52:24;;;;;;;12.10;6.37;;;;;;;6.12;94.73;95247.38;5071168;28;20192;-69
2020/12/14 01:54:53;;;;;;;10.30;5.60;;;;;;;6.07;95.10;95255.16;5071002;28;20199;-69
2020/12/14 01:57:21;;;;;;;12.97;6.43;;;;;;;6.01;95.62;95249.28;5070918;28;20271;-69
2020/12/14 01:59:48;;;;;;;13.90;7.17;;;;;;;6.00;95.82;95256.25;5070932;28;20200;-69
2020/12/14 02:02:15;;;;;;;14.00;6.27;;;;;;;6.03;95.80;95252.34;5070939;28;20195;-66
2020/12/14 02:04:41;;;;;;;10.03;5.80;;;;;;;5.97;95.58;95256.78;5070768;28;20197;-68
2020/12/14 02:07:08;;;;;;;10.77;5.90;;;;;;;5.98;95.82;95255.72;5070671;28;20192;-69
2020/12/14 02:09:35;;;;;;;8.33;4.60;;;;;;;6.04;95.87;95262.41;5070635;28;20193;-67
2020/12/14 02:12:01;;;;;;;6.03;4.07;;;;;;;5.95;96.11;95258.84;5070873;28;20196;-69
2020/12/14 02:14:29;;;;;;;6.60;4.40;;;;;;;5.92;96.73;95253.47;5070687;28;20548;-68
2020/12/14 02:16:56;;;;;;;5.73;4.20;;;;;;;6.01;96.21;95262.19;5070585;28;20575;-67
2020/12/14 02:19:23;;;;;;;5.63;4.07;;;;;;;6.10;95.72;95263.13;5070384;28;20202;-69
2020/12/14 02:21:50;;;;;;;13.00;7.10;;;;;;;5.97;96.38;95259.38;5070526;28;20235;-67
2020/12/14 02:24:18;;;;;;;11.80;6.10;;;;;;;5.98;96.60;95258.31;5070469;28;20218;-68
2020/12/14 02:26:48;;;;;;;12.67;6.53;;;;;;;5.96;96.27;95250.09;5070354;28;20208;-68
2020/12/14 02:29:15;;;;;;;9.10;5.43;;;;;;;5.95;95.72;95252.94;5070591;28;20188;-68
2020/12/14 02:31:42;;;;;;;11.93;5.73;;;;;;;5.89;96.38;95254.78;5070391;28;20214;-68
2020/12/14 02:34:09;;;;;;;8.93;4.50;;;;;;;5.89;96.00;95251.41;5070430;28;20198;-68
2020/12/14 02:36:36;;;;;;;12.60;6.47;;;;;;;5.97;95.42;95250.88;5070375;28;20220;-66
2020/12/14 02:39:04;;;;;;;5.87;4.00;;;;;;;5.93;94.93;95255.78;5070281;28;20379;-68
2020/12/14 02:41:32;;;;;;;8.17;4.87;;;;;;;5.80;95.44;95260.75;5069962;28;20244;-66
2020/12/14 02:43:58;;;;;;;5.77;4.47;;;;;;;5.86;95.81;95250.13;5070111;28;20206;-67
2020/12/14 02:46:25;;;;;;;7.13;4.70;;;;;;;5.88;96.98;95248.06;5070410;28;20193;-67
2020/12/14 02:48:52;;;;;;;7.53;5.03;;;;;;;5.78;97.94;95258.41;5070217;28;20202;-67
2020/12/14 02:51:19;;;;;;;6.93;4.80;;;;;;;5.90;97.24;95253.75;5070016;28;20192;-67
2020/12/14 02:53:47;;;;;;;12.23;5.83;;;;;;;5.88;96.62;95242.13;5070016;28;20203;-69
2020/12/14 02:56:16;;;;;;;7.70;4.73;;;;;;;5.84;96.30;95248.84;5070086;28;20207;-69
2020/12/14 02:58:44;;;;;;;11.03;6.23;;;;;;;5.96;95.47;95257.06;5069944;28;20210;-69
2020/12/14 03:01:11;;;;;;;6.53;4.50;;;;;;;5.99;94.41;95254.69;5070080;28;20228;-69
2020/12/14 03:03:38;;;;;;;9.60;5.87;;;;;;;5.93;94.80;95258.34;5069966;28;20203;-68
2020/12/14 03:06:04;;;;;;;6.77;4.60;;;;;;;5.88;95.13;95263.53;5069961;28;20203;-67
2020/12/14 03:08:31;;;;;;;16.00;7.80;;;;;;;5.86;95.78;95263.03;5070172;28;20192;-68
2020/12/14 03:10:58;;;;;;;12.03;6.63;;;;;;;5.92;95.11;95254.25;5070296;28;20189;-68
2020/12/14 03:13:25;;;;;;;14.57;7.10;;;;;;;5.91;95.73;95251.94;5069924;28;20196;-69
2020/12/14 03:15:52;;;;;;;8.97;5.03;;;;;;;5.94;95.42;95247.00;5069755;28;20192;-66
2020/12/14 03:18:19;;;;;;;9.13;5.43;;;;;;;5.93;95.04;95258.34;5069871;28;20192;-69
2020/12/14 03:20:46;;;;;;;8.10;5.07;;;;;;;5.90;95.68;95251.16;5069570;28;20584;-66
2020/12/14 03:23:13;;;;;;;6.77;4.90;;;;;;;5.97;94.56;95258.59;5070138;28;20194;-67
2020/12/14 03:25:41;;;;;;;5.77;4.23;;;;;;;5.90;95.79;95261.47;5069829;28;20196;-67
2020/12/14 03:28:08;;;;;;;6.83;4.07;;;;;;;5.86;96.23;95263.03;5069871;28;20227;-69
2020/12/14 03:30:35;;;;;;;6.70;3.90;;;;;;;5.86;96.40;95257.88;5070022;28;20188;-67
2020/12/14 03:33:03;;;;;;;5.50;4.20;;;;;;;5.88;95.68;95262.75;5073662;28;20226;-68
2020/12/14 03:35:30;;;;;;;8.97;5.40;;;;;;;5.85;94.50;95256.31;5073667;28;20624;-69
2020/12/14 03:37:56;;;;;;;8.03;4.97;;;;;;;5.72;95.01;95251.78;5073485;28;20283;-68
2020/12/14 03:40:23;;;;;;;5.37;4.17;;;;;;;5.72;95.87;95248.44;5073436;28;20699;-68
2020/12/14 03:42:50;;;;;;;8.60;4.33;;;;;;;5.76;96.40;95249.44;5073616;28;20203;-70
2020/12/14 03:45:17;;;;;;;5.40;3.83;;;;;;;5.76;96.97;95252.00;5073625;28;20196;-69
2020/12/14 03:47:43;;;;;;;6.70;4.60;;;;;;;5.70;96.79;95251.28;5073385;28;20221;-69
2020/12/14 03:50:11;;;;;;;5.20;3.67;;;;;;;5.66;97.50;95255.41;5073277;28;20192;-69
2020/12/14 03:52:38;;;;;;;4.33;3.50;;;;;;;5.68;97.04;95261.06;5073258;28;20681;-69
2020/12/14 03:55:04;;;;;;;4.37;3.50;;;;;;;5.71;97.11;95263.13;5073529;28;20199;-68
2020/12/14 03:57:31;;;;;;;5.07;3.50;;;;;;;5.71;96.44;95263.13;5073179;28;20667;-69
2020/12/14 03:59:58;;;;;;;5.67;4.20;;;;;;;5.66;95.12;95260.56;5073103;28;20207;-68
2020/12/14 04:02:27;;;;;;;5.07;3.97;;;;;;;5.78;94.73;95260.25;5073150;28;20203;-68
2020/12/14 04:04:54;;;;;;;5.07;3.80;;;;;;;5.76;94.61;95268.25;5072956;28;20196;-67
2020/12/14 04:07:22;;;;;;;5.30;3.77;;;;;;;5.68;95.10;95273.94;5073525;28;20192;-69
2020/12/14 04:09:49;;;;;;;5.77;4.13;;;;;;;5.65;94.78;95277.06;5072994;28;20545;-69
2020/12/14 04:12:16;;;;;;;5.47;3.70;;;;;;;5.64;95.10;95275.53;5072865;28;20188;-69
2020/12/14 04:14:42;;;;;;;5.80;4.10;;;;;;;5.59;94.35;95271.19;5072798;28;20204;-68
2020/12/14 04:17:09;;;;;;;4.27;3.30;;;;;;;5.56;94.70;95281.25;5072790;28;20195;-68
2020/12/14 04:19:36;;;;;;;5.43;3.80;;;;;;;5.51;94.31;95286.44;5072967;28;20586;-69
2020/12/14 04:22:07;;;;;;;4.70;3.30;;;;;;;5.51;94.10;95279.47;5072578;28;20225;-68
2020/12/14 04:24:35;;;;;;;4.03;3.10;;;;;;;5.49;94.35;95294.44;5073046;28;20200;-68
2020/12/14 04:27:02;;;;;;;4.43;3.30;;;;;;;5.54;93.74;95303.94;5072650;28;20247;-68
2020/12/14 04:29:30;;;;;;;4.03;3.27;;;;;;;5.39;94.01;95301.44;5072583;28;20566;-68
2020/12/14 04:31:56;;;;;;;7.03;4.40;;;;;;;5.32;94.82;95301.75;5072608;28;20222;-69
2020/12/14 04:34:23;;;;;;;5.47;3.43;;;;;;;5.41;94.09;95302.72;5072532;28;20596;-68
2020/12/14 04:36:50;;;;;;;5.13;3.80;;;;;;;5.38;94.24;95307.63;5072848;28;20591;-66
2020/12/14 04:39:19;;;;;;;5.70;4.20;;;;;;;5.44;93.77;95314.28;5072612;28;20571;-69
2020/12/14 04:41:46;;;;;;;6.10;3.90;;;;;;;5.50;93.39;95316.59;5072009;28;20722;-69
2020/12/14 04:44:14;;;;;;;6.00;4.07;;;;;;;5.46;93.73;95315.59;5071388;28;20202;-68
2020/12/14 04:46:44;;;;;;;6.50;4.90;;;;;;;5.42;93.98;95318.94;5072171;28;20192;-68
2020/12/14 04:49:11;;;;;;;6.17;4.27;;;;;;;5.47;94.54;95321.50;5072293;28;20204;-68
2020/12/14 04:51:39;;;;;;;6.10;4.10;;;;;;;5.50;94.01;95320.97;5072283;28;20588;-69
2020/12/14 04:54:06;;;;;;;9.50;5.20;;;;;;;5.56;93.02;95327.66;5072342;28;20228;-67
2020/12/14 04:56:39;;;;;;;12.07;9.13;;;;;;;5.52;91.71;95326.63;5072150;28;20570;-67
2020/12/14 04:59:08;;;;;;;9.53;5.93;;;;;;;5.39;93.23;95324.63;5072092;28;20201;-68
2020/12/14 05:01:35;;;;;;;6.70;4.63;;;;;;;5.42;93.23;95331.84;5072230;28;20224;-68
2020/12/14 05:04:02;;;;;;;4.67;3.47;;;;;;;5.43;93.80;95330.81;5072184;28;20196;-69
2020/12/14 05:06:49;;;;;;;5.87;4.37;;;;;;;5.46;94.03;95338.78;5071935;28;20195;-67
2020/12/14 05:09:17;;;;;;;17.03;13.87;;;;;;;5.42;94.09;95344.72;5071978;28;20192;-67
2020/12/14 05:11:43;;;;;;;15.80;11.90;;;;;;;5.48;94.46;95346.25;5072093;28;20196;-69
2020/12/14 05:14:16;;;;;;;18.40;15.00;;;;;;;5.49;94.30;95358.06;5071960;28;20199;-68
2020/12/14 05:16:44;;;;;;;17.23;13.30;;;;;;;5.50;94.76;95355.25;5072171;28;20203;-68
2020/12/14 05:19:24;;;;;;;14.00;11.07;;;;;;;5.52;95.30;95355.75;5072056;28;20200;-69
2020/12/14 05:21:53;;;;;;;14.40;11.43;;;;;;;5.59;95.19;95358.03;5071683;28;20255;-67
2020/12/14 05:24:21;;;;;;;15.73;11.93;;;;;;;5.62;94.86;95367.84;5071634;28;20192;-68
2020/12/14 05:26:49;;;;;;;14.13;10.70;;;;;;;5.70;94.54;95362.13;5071875;28;20204;-68
2020/12/14 05:29:23;;;;;;;12.20;9.57;;;;;;;5.67;94.10;95375.53;5071641;28;20193;-69
2020/12/14 05:32:06;;;;;;;12.70;8.70;;;;;;;5.62;94.23;95372.97;5071518;28;20770;-70
2020/12/14 05:34:34;;;;;;;7.30;6.50;;;;;;;5.60;94.49;95375.03;5071612;28;20234;-69
2020/12/14 05:37:03;;;;;;;9.70;7.93;;;;;;;5.69;94.16;95372.69;5071609;28;20207;-67
2020/12/14 05:39:30;;;;;;;14.33;11.77;;;;;;;5.64;94.13;95387.13;5071333;28;20196;-67
2020/12/14 05:42:24;;;;;;;23.73;16.87;;;;;;;5.70;94.29;95382.75;5070990;28;20237;-68
2020/12/14 05:44:52;;;;;;;12.33;9.23;;;;;;;5.68;93.61;95382.22;5046797;28;20202;-69
2020/12/14 05:47:23;;;;;;;6.60;4.87;;;;;;;5.71;92.24;95392.03;5071100;28;20196;-68
2020/12/14 05:49:50;;;;;;;6.50;4.87;;;;;;;5.71;92.18;95392.03;5071162;28;20196;-68
2020/12/14 05:52:19;;;;;;;7.23;4.40;;;;;;;5.73;91.81;95397.66;5071008;28;20655;-69
2020/12/14 05:54:51;;;;;;;5.70;4.27;;;;;;;5.71;91.68;95397.19;5070554;28;20250;-67
2020/12/14 05:57:29;;;;;;;5.77;3.93;;;;;;;5.66;91.89;95394.63;5070955;28;20195;-68
2020/12/14 06:00:03;;;;;;;5.40;3.97;;;;;;;5.68;91.11;95399.50;5070872;28;20204;-68
2020/12/14 06:02:30;;;;;;;5.73;4.50;;;;;;;5.65;91.21;95403.38;5070948;28;20590;-68
2020/12/14 06:05:02;;;;;;;6.23;4.40;;;;;;;5.67;91.36;95406.47;5070797;28;20207;-68
2020/12/14 06:07:31;;;;;;;8.00;4.33;;;;;;;5.64;90.04;95412.13;5070782;28;20192;-69
2020/12/14 06:10:10;;;;;;;6.20;4.27;;;;;;;5.69;90.19;95414.69;5070707;28;20196;-67
2020/12/14 06:12:39;;;;;;;4.63;3.73;;;;;;;5.63;89.27;95420.91;5070838;28;20189;-68
2020/12/14 06:15:08;;;;;;;4.07;3.33;;;;;;;5.65;89.61;95424.00;5070366;28;20240;-68
2020/12/14 06:17:36;;;;;;;5.07;3.57;;;;;;;5.62;90.07;95427.13;5070821;28;20197;-69
2020/12/14 06:20:13;;;;;;;9.60;4.63;;;;;;;5.62;90.35;95425.31;5070500;28;20283;-69
2020/12/14 06:22:44;;;;;;;5.87;4.70;;;;;;;5.57;90.09;95438.22;5070430;28;20197;-68
2020/12/14 06:25:11;;;;;;;8.00;5.63;;;;;;;5.61;90.57;95433.28;5070438;28;20201;-69
2020/12/14 06:27:38;;;;;;;5.20;4.30;;;;;;;5.66;89.47;95437.66;5070482;28;20210;-69
2020/12/14 06:30:30;;;;;;;6.70;4.23;;;;;;;5.65;89.64;95449.78;5070437;28;20593;-70
2020/12/14 06:33:01;;;;;;;7.13;3.60;;;;;;;5.67;88.81;95447.72;5064638;28;20222;-69
2020/12/14 06:35:42;;;;;;;5.03;3.90;;;;;;;5.59;89.37;95455.97;5070451;28;20736;-69
2020/12/14 06:38:09;;;;;;;5.20;3.57;;;;;;;5.66;89.40;95456.47;5070161;28;20204;-70
2020/12/14 06:41:11;;;;;;;9.53;7.03;;;;;;;5.76;87.77;95464.19;5069828;28;20240;-69
2020/12/14 06:43:38;;;;;;;12.13;8.30;;;;;;;5.75;88.25;95459.28;5028275;28;20205;-68
2020/12/14 06:46:06;;;;;;;9.07;5.50;;;;;;;5.69;88.51;95463.69;5061947;28;20210;-68
2020/12/14 06:48:38;;;;;;;7.93;4.27;;;;;;;5.74;87.61;95478.34;5070160;28;20199;-69
2020/12/14 06:51:06;;;;;;;18.90;14.23;;;;;;;5.71;88.60;95477.09;5070300;28;20196;-69
2020/12/14 06:53:48;;;;;;;16.23;11.40;;;;;;;5.69;88.76;95473.22;5070160;28;20197;-69
2020/12/14 06:56:16;;;;;;;6.73;4.73;;;;;;;5.71;88.80;95476.31;5070250;28;20196;-70
2020/12/14 06:58:44;;;;;;;5.80;4.07;;;;;;;5.75;88.53;95474.75;5069848;28;20201;-70
2020/12/14 07:01:37;;;;;;;7.70;4.10;;;;;;;5.70;88.52;95482.50;5070196;28;20369;-70
2020/12/14 07:04:06;;;;;;;7.00;4.50;;;;;;;5.74;88.51;95486.09;5068145;28;20201;-67
2020/12/14 07:06:34;;;;;;;5.60;3.67;;;;;;;5.79;86.82;95492.00;5069205;28;20240;-69
2020/12/14 07:09:20;;;;;;;7.00;4.80;;;;;;;5.75;87.17;95491.00;5069879;28;20199;-68
2020/12/14 07:11:47;;;;;;;7.00;4.20;;;;;;;5.84;87.04;95494.56;5069548;28;20192;-69
2020/12/14 07:14:28;;;;;;;7.50;4.10;;;;;;;5.82;87.14;95506.97;5069802;28;20279;-69
2020/12/14 07:16:57;;;;;;;5.90;3.70;;;;;;;5.87;86.64;95496.66;5070156;28;20200;-66
2020/12/14 07:19:34;;;;;;;10.80;9.70;;;;;;;5.88;87.03;95497.41;5069893;28;20196;-68
2020/12/14 07:22:01;;;;;;;9.37;6.40;;;;;;;5.85;86.89;95500.50;5069702;28;20315;-69
2020/12/14 07:24:34;;;;;;;4.87;3.40;;;;;;;5.86;86.73;95499.47;5069695;28;20204;-68
2020/12/14 07:27:01;;;;;;;4.17;3.07;;;;;;;5.89;86.77;95510.06;5069853;28;20332;-68
2020/12/14 07:29:28;;;;;;;4.37;3.50;;;;;;;5.87;86.93;95504.41;5069841;28;20198;-68
2020/12/14 07:31:56;;;;;;;5.83;4.13;;;;;;;5.74;87.79;95515.22;5069611;28;20218;-69
2020/12/14 07:34:22;;;;;;;5.63;4.13;;;;;;;5.75;88.36;95506.47;5069698;28;20189;-68
2020/12/14 07:36:49;;;;;;;6.57;3.43;;;;;;;5.81;87.10;95513.16;5069759;28;20225;-69
2020/12/14 07:39:16;;;;;;;7.20;3.70;;;;;;;5.90;86.63;95516.00;5069673;28;20636;-69
2020/12/14 07:41:47;;;;;;;4.00;2.97;;;;;;;5.96;85.88;95515.72;5069615;28;20240;-68
2020/12/14 07:44:14;;;;;;;39.60;16.70;;;;;;;5.95;86.75;95521.91;5069547;28;20193;-69
2020/12/14 07:46:41;;;;;;;208.70;84.73;;;;;;;5.98;86.31;95523.94;5069578;28;20200;-69
2020/12/14 07:49:13;;;;;;;16.87;9.37;;;;;;;6.00;85.97;95526.28;5069543;28;20201;-68
2020/12/14 07:51:41;;;;;;;17.67;10.73;;;;;;;6.02;86.28;95517.25;5069485;28;20197;-69
2020/12/14 07:54:13;;;;;;;36.80;28.57;;;;;;;6.00;85.00;95531.44;5069407;28;20585;-70
2020/12/14 07:56:46;;;;;;;20.03;13.73;;;;;;;6.00;85.34;95528.84;5069541;28;20254;-70
2020/12/14 07:59:23;;;;;;;17.57;11.40;;;;;;;6.03;85.59;95538.63;5069405;28;20193;-71
2020/12/14 08:01:51;;;;;;;28.27;18.13;;;;;;;6.04;86.62;95532.44;5069543;28;20224;-69
2020/12/14 08:04:29;;;;;;;15.23;10.90;;;;;;;6.11;86.48;95534.75;5069530;28;20192;-71
2020/12/14 08:06:57;;;;;;;11.67;8.43;;;;;;;6.24;85.51;95540.13;5069577;28;20282;-67
2020/12/14 08:09:28;;;;;;;164.37;42.70;;;;;;;6.24;85.12;95545.28;5069457;28;20199;-70
2020/12/14 08:11:56;;;;;;;172.90;43.37;;;;;;;6.19;84.63;95537.56;5069445;28;20226;-69
2020/12/14 08:14:23;;;;;;;43.40;12.43;;;;;;;6.18;85.13;95546.31;5069240;28;20193;-68
2020/12/14 08:16:50;;;;;;;26.60;10.10;;;;;;;6.10;86.45;95546.09;5069934;28;20289;-70
2020/12/14 08:19:22;;;;;;;20.40;6.43;;;;;;;6.05;86.23;95542.50;5072869;28;20281;-70
2020/12/14 08:22:06;;;;;;;40.07;12.43;;;;;;;6.09;87.92;95557.44;5072692;28;20242;-69
2020/12/14 08:24:34;;;;;;;59.93;15.37;;;;;;;6.11;87.68;95552.81;5072944;28;20698;-67
2020/12/14 08:27:04;;;;;;;28.37;8.37;;;;;;;6.14;88.57;95552.28;5072283;28;20200;-70
2020/12/14 08:29:32;;;;;;;59.63;15.07;;;;;;;6.04;88.32;95553.84;5072544;28;20195;-70
2020/12/14 08:32:00;;;;;;;41.97;11.57;;;;;;;6.01;88.73;95561.34;5072451;28;20220;-69
2020/12/14 08:34:31;;;;;;;7.00;3.50;;;;;;;5.94;89.86;95556.47;5072928;28;20751;-69
2020/12/14 08:36:58;;;;;;;6.27;3.00;;;;;;;6.02;90.26;95553.38;5072490;28;20206;-69
2020/12/14 08:39:26;;;;;;;26.13;9.10;;;;;;;6.05;90.75;95555.41;5072516;28;20193;-70
2020/12/14 08:42:10;;;;;;;30.77;9.80;;;;;;;6.12;88.38;95560.28;5072066;28;20240;-70
2020/12/14 08:44:38;;;;;;;4.33;2.90;;;;;;;6.12;88.62;95556.94;5072733;28;20280;-69
2020/12/14 08:47:14;;;;;;;3.77;2.67;;;;;;;6.05;89.50;95552.81;5072660;28;20664;-72
2020/12/14 08:49:41;;;;;;;2.77;2.33;;;;;;;6.05;90.58;95560.56;5072370;28;20199;-69
2020/12/14 08:52:08;;;;;;;6.40;3.23;;;;;;;6.12;91.05;95562.09;5072448;28;20268;-66
2020/12/14 08:54:36;;;;;;;3.00;2.60;;;;;;;6.12;91.35;95551.78;5072572;28;20205;-70
2020/12/14 08:57:03;;;;;;;2.90;2.30;;;;;;;6.10;91.02;95551.25;5072407;28;20196;-70
2020/12/14 08:59:29;;;;;;;4.23;2.80;;;;;;;6.10;90.80;95551.25;5072117;28;20580;-69
2020/12/14 09:02:00;;;;;;;3.83;2.33;;;;;;;6.14;91.28;95549.69;5071836;28;20238;-71
2020/12/14 09:04:28;;;;;;;3.67;2.20;;;;;;;6.18;90.73;95546.31;5072048;28;20679;-70
2020/12/14 09:06:55;;;;;;;3.00;2.37;;;;;;;6.25;89.03;95543.47;5072111;28;20307;-71
2020/12/14 09:09:30;;;;;;;3.10;2.27;;;;;;;6.18;91.58;95551.47;5072032;28;20247;-68
2020/12/14 09:11:58;;;;;;;3.00;2.63;;;;;;;6.18;91.44;95551.47;5072074;28;20196;-70
2020/12/14 09:14:26;;;;;;;6.50;3.53;;;;;;;6.19;90.89;95540.13;5071974;28;20549;-70
2020/12/14 09:16:54;;;;;;;2.77;2.23;;;;;;;6.27;88.49;95554.31;5071807;28;20192;-70
2020/12/14 09:19:22;;;;;;;2.67;2.20;;;;;;;6.23;88.89;95548.09;5071713;28;20188;-70
2020/12/14 09:21:49;;;;;;;3.97;2.63;;;;;;;6.20;90.14;95544.25;5071584;28;20228;-70
2020/12/14 09:24:18;;;;;;;3.27;2.63;;;;;;;6.13;90.49;95551.50;5071682;28;20223;-71
2020/12/14 09:26:46;;;;;;;3.23;2.60;;;;;;;6.14;89.22;95550.47;5071653;28;20267;-71
2020/12/14 09:29:18;;;;;;;3.63;2.57;;;;;;;6.20;89.74;95551.22;5070953;28;20196;-70
2020/12/14 09:31:52;;;;;;;3.10;2.33;;;;;;;6.10;90.44;95543.53;5071417;28;20210;-69
2020/12/14 09:34:19;;;;;;;4.93;3.13;;;;;;;6.20;88.06;95553.81;5071329;28;20203;-69
2020/12/14 09:36:46;;;;;;;4.90;2.90;;;;;;;6.25;91.81;95540.88;5071722;28;20689;-70
2020/12/14 09:39:12;;;;;;;4.27;3.53;;;;;;;6.23;92.61;95542.94;5071211;28;20196;-69
2020/12/14 09:41:39;;;;;;;4.23;3.47;;;;;;;5.97;92.62;95550.81;5071380;28;20271;-70
2020/12/14 09:44:06;;;;;;;4.97;3.90;;;;;;;5.86;92.94;95546.66;5071236;28;20204;-70
2020/12/14 09:46:34;;;;;;;7.43;4.47;;;;;;;5.90;95.68;95545.13;5071129;28;20206;-70
2020/12/14 09:49:01;;;;;;;9.20;6.20;;;;;;;5.88;95.84;95544.59;5071421;28;20200;-69
2020/12/14 09:51:29;;;;;;;8.13;5.40;;;;;;;5.71;96.63;95545.91;5071240;28;20580;-69
2020/12/14 09:53:56;;;;;;;8.77;6.10;;;;;;;5.76;96.17;95538.94;5071602;28;20288;-70
2020/12/14 09:56:23;;;;;;;8.57;5.97;;;;;;;5.65;97.54;95542.56;5071094;28;20190;-70
2020/12/14 09:58:50;;;;;;;7.87;5.60;;;;;;;5.57;96.79;95530.22;5071078;28;20196;-69
2020/12/14 10:01:16;;;;;;;9.20;6.63;;;;;;;5.60;98.02;95534.84;5071370;28;20224;-68
2020/12/14 10:03:44;;;;;;;9.13;5.97;;;;;;;5.60;98.13;95530.47;5070882;28;20232;-67
2020/12/14 10:06:12;;;;;;;7.27;5.47;;;;;;;5.52;97.13;95540.53;5070869;28;20275;-68
2020/12/14 10:08:39;;;;;;;7.93;5.60;;;;;;;5.58;97.30;95536.91;5070752;28;20196;-69
2020/12/14 10:11:07;;;;;;;9.03;5.77;;;;;;;5.51;97.71;95537.19;5071163;28;20193;-70
2020/12/14 10:13:34;;;;;;;8.40;6.00;;;;;;;5.57;98.16;95543.13;5070517;28;20196;-71
2020/12/14 10:16:01;;;;;;;8.03;5.80;;;;;;;5.57;97.78;95538.72;5070734;28;20192;-70
2020/12/14 10:18:28;;;;;;;6.43;5.17;;;;;;;5.52;97.23;95530.22;5070677;28;20598;-69
2020/12/14 10:20:56;;;;;;;7.13;5.63;;;;;;;5.49;98.49;95533.31;5070501;28;20287;-70
2020/12/14 10:23:23;;;;;;;7.63;5.83;;;;;;;5.52;98.54;95532.81;5070470;28;20228;-69
2020/12/14 10:25:49;;;;;;;7.73;5.60;;;;;;;5.42;98.76;95532.81;5070272;28;20316;-70
2020/12/14 10:28:16;;;;;;;8.40;5.80;;;;;;;5.59;99.34;95530.72;5070331;28;20192;-71
2020/12/14 10:30:43;;;;;;;7.77;5.53;;;;;;;5.66;99.52;95533.81;5070342;28;20283;-70
2020/12/14 10:33:10;;;;;;;8.27;5.67;;;;;;;5.55;99.67;95542.59;5070223;28;20216;-71
2020/12/14 10:35:37;;;;;;;9.70;6.53;;;;;;;5.60;98.93;95532.28;5070292;28;20188;-71
2020/12/14 10:38:05;;;;;;;6.87;5.17;;;;;;;5.63;97.54;95536.91;5070359;28;20277;-71
2020/12/14 10:40:32;;;;;;;6.83;4.50;;;;;;;5.56;96.55;95546.72;5069258;28;20619;-70
2020/12/14 10:42:58;;;;;;;8.50;5.90;;;;;;;5.61;99.03;95541.56;5070389;28;20231;-69
2020/12/14 10:45:25;;;;;;;7.57;5.67;;;;;;;5.49;99.65;95543.63;5070399;28;20230;-70
2020/12/14 10:47:52;;;;;;;7.70;5.40;;;;;;;5.62;98.31;95538.72;5070224;28;20283;-70
2020/12/14 10:50:19;;;;;;;6.47;4.87;;;;;;;5.64;97.43;95543.59;5070230;28;20755;-70
2020/12/14 10:52:46;;;;;;;5.90;4.43;;;;;;;5.56;96.62;95533.81;5070129;28;20275;-70
2020/12/14 10:55:14;;;;;;;5.77;4.43;;;;;;;5.60;96.50;95540.00;5070057;28;20571;-69
2020/12/14 10:57:41;;;;;;;4.93;4.00;;;;;;;5.48;95.94;95542.84;5070292;28;20280;-69
2020/12/14 11:00:09;;;;;;;5.10;4.13;;;;;;;5.40;96.56;95538.22;5070136;28;20288;-71
2020/12/14 11:02:38;;;;;;;5.70;4.20;;;;;;;5.34;96.49;95535.91;5070063;28;20268;-69
2020/12/14 11:05:06;;;;;;;4.43;3.53;;;;;;;5.38;96.44;95536.94;5070153;28;20199;-69
2020/12/14 11:07:34;;;;;;;5.20;4.23;;;;;;;5.47;97.97;95535.38;5069997;28;20735;-69
2020/12/14 11:10:00;;;;;;;5.17;3.93;;;;;;;5.48;97.32;95531.78;5069857;28;20206;-69
2020/12/14 11:12:28;;;;;;;5.03;3.87;;;;;;;5.61;97.81;95541.56;5070096;28;20663;-70
2020/12/14 11:14:55;;;;;;;5.57;4.20;;;;;;;5.62;97.32;95536.16;5070122;28;20653;-69
2020/12/14 11:17:22;;;;;;;5.37;4.37;;;;;;;5.71;98.30;95536.38;5070154;28;20687;-70
2020/12/14 11:19:49;;;;;;;5.97;4.47;;;;;;;5.70;97.29;95536.63;5069720;28;20644;-71
2020/12/14 11:22:16;;;;;;;5.83;4.70;;;;;;;5.60;96.38;95537.44;5069708;28;20310;-66
2020/12/14 11:24:43;;;;;;;6.10;4.50;;;;;;;5.62;96.47;95543.09;5069872;28;20279;-69
2020/12/14 11:27:09;;;;;;;5.37;4.30;;;;;;;5.75;95.64;95545.13;5069837;28;20197;-69
2020/12/14 11:29:37;;;;;;;5.53;4.63;;;;;;;5.72;95.93;95542.31;5069707;28;20680;-70
2020/12/14 11:32:04;;;;;;;6.13;4.70;;;;;;;5.89;96.61;95542.81;5069530;28;20210;-70
2020/12/14 11:34:31;;;;;;;6.03;4.70;;;;;;;5.80;96.18;95541.78;5069579;28;20192;-68
2020/12/14 11:37:00;;;;;;;6.03;4.67;;;;;;;5.90;96.37;95545.13;5069751;28;20300;-69
2020/12/14 11:39:27;;;;;;;6.17;4.70;;;;;;;5.79;96.36;95543.56;5069979;28;20280;-70
2020/12/14 11:41:54;;;;;;;6.20;4.70;;;;;;;5.87;95.65;95545.66;5069331;28;20323;-70
2020/12/14 11:44:21;;;;;;;7.20;5.00;;;;;;;5.84;95.09;95547.94;5069491;28;20192;-69